Hopper, Illinois
Current Conditions -  °F | °C
As of 3:30 PM on Saturday 22 Nov 2014 (Local Time) from KBRL Reporting Station
Overcast Overcast  
Wind Chill: 56°   Ceiling: 3300
Heat Index: 56°   Visibility: 10mi
Dew Point: 50°   Wind: 16mph
Humidity: 80%   Direction: 200°SSW
Pressure: 29.84"   Gusts: 23mph
Location:  40.7638°N, 90.9614°W
Report Text: KBRL 222130Z AUTO 20014G20KT 10SM FEW025 OVC033 13/10 A2984 RMK AO2 T01330100 $
Loading
Personal Weather Stations






























Interactive Weather Map New forecast layout! Learn more

10-Day Weather Forecast

Advertisements
Track Severe Weather on mobile